sensor_id;sensor_type;location;lat;lon;timestamp;P1;durP1;ratioP1;P2;durP2;ratioP2
7523;SDS011;3803;51.666;7.630;2024-02-21T00:00:26;13.30;;;6.15;;
7523;SDS011;3803;51.666;7.630;2024-02-21T00:00:54;12.95;;;6.25;;
7523;SDS011;3803;51.666;7.630;2024-02-21T00:01:18;11.38;;;6.40;;
7523;SDS011;3803;51.666;7.630;2024-02-21T00:01:45;11.05;;;6.50;;
7523;SDS011;3803;51.666;7.630;2024-02-21T00:02:24;11.88;;;6.40;;
7523;SDS011;3803;51.666;7.630;2024-02-21T00:02:48;12.75;;;6.50;;
7523;SDS011;3803;51.666;7.630;2024-02-21T00:03:45;16.45;;;6.57;;
7523;SDS011;3803;51.666;7.630;2024-02-21T00:04:16;16.67;;;6.40;;
7523;SDS011;3803;51.666;7.630;2024-02-21T00:05:03;16.40;;;6.68;;
7523;SDS011;3803;51.666;7.630;2024-02-21T00:05:30;15.88;;;6.85;;
7523;SDS011;3803;51.666;7.630;2024-02-21T00:05:51;13.93;;;6.45;;
7523;SDS011;3803;51.666;7.630;2024-02-21T00:06:12;18.88;;;6.72;;
7523;SDS011;3803;51.666;7.630;2024-02-21T00:06:33;19.83;;;7.10;;
7523;SDS011;3803;51.666;7.630;2024-02-21T00:06:56;19.30;;;7.40;;
7523;SDS011;3803;51.666;7.630;2024-02-21T00:07:46;13.65;;;6.38;;
7523;SDS011;3803;51.666;7.630;2024-02-21T00:11:46;16.60;;;5.95;;
7523;SDS011;3803;51.666;7.630;2024-02-21T00:12:09;9.65;;;5.80;;
7523;SDS011;3803;51.666;7.630;2024-02-21T00:17:19;15.57;;;7.30;;
7523;SDS011;3803;51.666;7.630;2024-02-21T00:24:48;15.25;;;6.40;;
7523;SDS011;3803;51.666;7.630;2024-02-21T00:25:20;15.52;;;6.00;;
7523;SDS011;3803;51.666;7.630;2024-02-21T00:25:51;16.92;;;6.90;;
7523;SDS011;3803;51.666;7.630;2024-02-21T00:26:12;15.63;;;6.95;;
7523;SDS011;3803;51.666;7.630;2024-02-21T00:26:44;12.60;;;6.63;;
7523;SDS011;3803;51.666;7.630;2024-02-21T00:27:26;14.15;;;6.72;;
7523;SDS011;3803;51.666;7.630;2024-02-21T00:27:55;13.20;;;6.97;;
7523;SDS011;3803;51.666;7.630;2024-02-21T00:28:32;11.13;;;6.10;;
7523;SDS011;3803;51.666;7.630;2024-02-21T00:29:02;12.82;;;6.03;;
7523;SDS011;3803;51.666;7.630;2024-02-21T00:29:39;19.60;;;6.80;;
7523;SDS011;3803;51.666;7.630;2024-02-21T00:30:05;19.73;;;7.25;;
7523;SDS011;3803;51.666;7.630;2024-02-21T00:30:34;18.40;;;6.80;;
7523;SDS011;3803;51.666;7.630;2024-02-21T00:31:15;14.05;;;6.70;;
7523;SDS011;3803;51.666;7.630;2024-02-21T00:31:44;13.98;;;7.10;;
7523;SDS011;3803;51.666;7.630;2024-02-21T00:36:33;12.98;;;6.88;;
7523;SDS011;3803;51.666;7.630;2024-02-21T00:36:54;15.30;;;7.40;;
7523;SDS011;3803;51.666;7.630;2024-02-21T00:37:14;13.80;;;6.90;;
7523;SDS011;3803;51.666;7.630;2024-02-21T00:37:44;12.93;;;6.80;;
7523;SDS011;3803;51.666;7.630;2024-02-21T00:38:05;11.98;;;6.30;;
7523;SDS011;3803;51.666;7.630;2024-02-21T00:38:47;12.73;;;6.15;;
7523;SDS011;3803;51.666;7.630;2024-02-21T00:39:28;15.90;;;6.25;;
7523;SDS011;3803;51.666;7.630;2024-02-21T00:39:49;14.68;;;6.35;;
7523;SDS011;3803;51.666;7.630;2024-02-21T00:48:15;19.50;;;7.30;;
7523;SDS011;3803;51.666;7.630;2024-02-21T00:54:04;9.57;;;5.95;;
7523;SDS011;3803;51.666;7.630;2024-02-21T00:59:07;15.50;;;6.40;;
7523;SDS011;3803;51.666;7.630;2024-02-21T00:59:52;18.27;;;7.45;;
7523;SDS011;3803;51.666;7.630;2024-02-21T01:00:13;18.63;;;7.60;;
7523;SDS011;3803;51.666;7.630;2024-02-21T01:07:32;19.27;;;7.40;;
7523;SDS011;3803;51.666;7.630;2024-02-21T01:07:52;19.33;;;7.78;;
7523;SDS011;3803;51.666;7.630;2024-02-21T01:08:19;15.57;;;7.50;;
7523;SDS011;3803;51.666;7.630;2024-02-21T01:13:06;17.05;;;6.57;;
7523;SDS011;3803;51.666;7.630;2024-02-21T01:13:47;14.70;;;6.65;;
7523;SDS011;3803;51.666;7.630;2024-02-21T01:16:02;16.05;;;7.20;;
7523;SDS011;3803;51.666;7.630;2024-02-21T01:16:26;15.90;;;6.80;;
7523;SDS011;3803;51.666;7.630;2024-02-21T01:17:00;16.42;;;7.13;;
7523;SDS011;3803;51.666;7.630;2024-02-21T01:17:56;21.50;;;7.78;;
7523;SDS011;3803;51.666;7.630;2024-02-21T01:19:54;11.95;;;6.68;;
7523;SDS011;3803;51.666;7.630;2024-02-21T01:20:36;12.57;;;7.20;;
7523;SDS011;3803;51.666;7.630;2024-02-21T01:21:21;13.23;;;7.20;;
7523;SDS011;3803;51.666;7.630;2024-02-21T01:27:24;14.95;;;7.10;;
7523;SDS011;3803;51.666;7.630;2024-02-21T01:28:58;15.88;;;7.10;;
7523;SDS011;3803;51.666;7.630;2024-02-21T01:29:38;20.15;;;7.25;;
7523;SDS011;3803;51.666;7.630;2024-02-21T01:35:08;15.07;;;7.30;;
7523;SDS011;3803;51.666;7.630;2024-02-21T01:37:00;16.92;;;6.80;;
7523;SDS011;3803;51.666;7.630;2024-02-21T01:37:32;15.43;;;6.93;;
7523;SDS011;3803;51.666;7.630;2024-02-21T01:44:17;12.95;;;6.68;;
7523;SDS011;3803;51.666;7.630;2024-02-21T01:45:15;9.40;;;6.28;;
7523;SDS011;3803;51.666;7.630;2024-02-21T01:55:45;10.23;;;6.65;;
7523;SDS011;3803;51.666;7.630;2024-02-21T01:56:57;13.90;;;6.88;;
7523;SDS011;3803;51.666;7.630;2024-02-21T01:57:33;15.30;;;7.05;;
7523;SDS011;3803;51.666;7.630;2024-02-21T01:58:17;11.50;;;6.53;;
7523;SDS011;3803;51.666;7.630;2024-02-21T02:04:14;14.32;;;7.05;;
7523;SDS011;3803;51.666;7.630;2024-02-21T02:08:55;15.05;;;6.90;;
7523;SDS011;3803;51.666;7.630;2024-02-21T02:09:31;11.52;;;6.82;;
7523;SDS011;3803;51.666;7.630;2024-02-21T02:10:22;14.60;;;7.38;;
7523;SDS011;3803;51.666;7.630;2024-02-21T02:10:49;14.50;;;6.90;;
7523;SDS011;3803;51.666;7.630;2024-02-21T02:11:18;13.38;;;6.43;;
7523;SDS011;3803;51.666;7.630;2024-02-21T02:11:54;12.40;;;6.32;;
7523;SDS011;3803;51.666;7.630;2024-02-21T02:17:22;18.10;;;7.20;;
7523;SDS011;3803;51.666;7.630;2024-02-21T02:17:43;15.95;;;7.75;;
7523;SDS011;3803;51.666;7.630;2024-02-21T02:18:19;11.90;;;6.78;;
7523;SDS011;3803;51.666;7.630;2024-02-21T02:18:49;11.80;;;6.63;;
7523;SDS011;3803;51.666;7.630;2024-02-21T02:19:15;13.77;;;7.10;;
7523;SDS011;3803;51.666;7.630;2024-02-21T02:19:45;15.77;;;7.20;;
7523;SDS011;3803;51.666;7.630;2024-02-21T02:20:48;20.02;;;6.88;;
7523;SDS011;3803;51.666;7.630;2024-02-21T02:25:48;19.63;;;6.53;;
7523;SDS011;3803;51.666;7.630;2024-02-21T02:26:13;26.63;;;6.93;;
7523;SDS011;3803;51.666;7.630;2024-02-21T02:26:34;23.30;;;7.25;;
7523;SDS011;3803;51.666;7.630;2024-02-21T02:26:55;17.23;;;7.33;;
7523;SDS011;3803;51.666;7.630;2024-02-21T02:27:25;14.60;;;7.15;;
7523;SDS011;3803;51.666;7.630;2024-02-21T02:27:47;18.25;;;7.20;;
7523;SDS011;3803;51.666;7.630;2024-02-21T02:28:39;13.50;;;6.57;;
7523;SDS011;3803;51.666;7.630;2024-02-21T02:29:03;12.13;;;6.18;;
7523;SDS011;3803;51.666;7.630;2024-02-21T02:29:23;13.85;;;6.80;;
7523;SDS011;3803;51.666;7.630;2024-02-21T02:29:47;14.93;;;7.00;;
7523;SDS011;3803;51.666;7.630;2024-02-21T02:30:08;14.90;;;6.93;;
7523;SDS011;3803;51.666;7.630;2024-02-21T02:30:45;13.07;;;6.45;;
7523;SDS011;3803;51.666;7.630;2024-02-21T02:31:31;13.82;;;6.72;;
7523;SDS011;3803;51.666;7.630;2024-02-21T02:36:16;9.00;;;5.70;;
7523;SDS011;3803;51.666;7.630;2024-02-21T02:42:17;12.63;;;6.78;;
7523;SDS011;3803;51.666;7.630;2024-02-21T02:42:37;14.52;;;6.60;;
7523;SDS011;3803;51.666;7.630;2024-02-21T02:53:43;22.08;;;5.70;;
7523;SDS011;3803;51.666;7.630;2024-02-21T02:54:07;20.58;;;5.75;;
7523;SDS011;3803;51.666;7.630;2024-02-21T02:54:28;12.63;;;5.78;;
7523;SDS011;3803;51.666;7.630;2024-02-21T02:54:49;12.52;;;5.95;;
7523;SDS011;3803;51.666;7.630;2024-02-21T02:55:32;16.20;;;6.75;;
7523;SDS011;3803;51.666;7.630;2024-02-21T02:56:14;11.50;;;5.50;;
7523;SDS011;3803;51.666;7.630;2024-02-21T02:57:08;14.18;;;5.63;;
7523;SDS011;3803;51.666;7.630;2024-02-21T02:57:56;13.50;;;6.15;;
7523;SDS011;3803;51.666;7.630;2024-02-21T02:59:26;10.15;;;5.88;;
7523;SDS011;3803;51.666;7.630;2024-02-21T03:00:11;11.55;;;6.30;;
7523;SDS011;3803;51.666;7.630;2024-02-21T03:01:51;13.15;;;5.72;;
7523;SDS011;3803;51.666;7.630;2024-02-21T03:02:11;14.75;;;5.97;;
7523;SDS011;3803;51.666;7.630;2024-02-21T03:02:35;12.80;;;6.32;;
7523;SDS011;3803;51.666;7.630;2024-02-21T03:03:00;13.43;;;5.97;;
7523;SDS011;3803;51.666;7.630;2024-02-21T03:03:39;19.02;;;6.43;;
7523;SDS011;3803;51.666;7.630;2024-02-21T03:05:11;13.18;;;5.80;;
7523;SDS011;3803;51.666;7.630;2024-02-21T03:07:14;8.90;;;4.93;;
7523;SDS011;3803;51.666;7.630;2024-02-21T03:07:57;13.05;;;5.47;;
7523;SDS011;3803;51.666;7.630;2024-02-21T03:13:26;11.00;;;5.35;;
7523;SDS011;3803;51.666;7.630;2024-02-21T03:13:59;12.63;;;5.50;;
7523;SDS011;3803;51.666;7.630;2024-02-21T03:14:22;14.65;;;5.65;;
7523;SDS011;3803;51.666;7.630;2024-02-21T03:20:59;9.20;;;5.70;;
7523;SDS011;3803;51.666;7.630;2024-02-21T03:22:30;14.77;;;6.38;;
7523;SDS011;3803;51.666;7.630;2024-02-21T03:23:08;10.13;;;6.00;;
7523;SDS011;3803;51.666;7.630;2024-02-21T03:23:42;9.68;;;5.90;;
7523;SDS011;3803;51.666;7.630;2024-02-21T03:28:59;14.00;;;6.68;;
7523;SDS011;3803;51.666;7.630;2024-02-21T03:29:20;11.35;;;6.30;;
7523;SDS011;3803;51.666;7.630;2024-02-21T03:34:16;12.52;;;5.70;;
7523;SDS011;3803;51.666;7.630;2024-02-21T03:34:57;17.90;;;6.10;;
7523;SDS011;3803;51.666;7.630;2024-02-21T03:39:15;12.75;;;6.32;;
7523;SDS011;3803;51.666;7.630;2024-02-21T03:39:44;14.18;;;6.68;;
7523;SDS011;3803;51.666;7.630;2024-02-21T03:40:08;10.88;;;5.82;;
7523;SDS011;3803;51.666;7.630;2024-02-21T03:42:24;9.85;;;5.93;;
7523;SDS011;3803;51.666;7.630;2024-02-21T03:43:37;12.55;;;6.30;;
7523;SDS011;3803;51.666;7.630;2024-02-21T03:46:24;14.80;;;6.57;;
7523;SDS011;3803;51.666;7.630;2024-02-21T03:47:00;12.48;;;6.25;;
7523;SDS011;3803;51.666;7.630;2024-02-21T03:48:16;16.38;;;6.80;;
7523;SDS011;3803;51.666;7.630;2024-02-21T03:48:43;13.98;;;6.35;;
7523;SDS011;3803;51.666;7.630;2024-02-21T03:49:17;11.52;;;5.93;;
7523;SDS011;3803;51.666;7.630;2024-02-21T03:49:44;11.82;;;5.88;;
7523;SDS011;3803;51.666;7.630;2024-02-21T03:50:29;13.27;;;6.50;;
7523;SDS011;3803;51.666;7.630;2024-02-21T03:51:13;12.30;;;6.28;;
7523;SDS011;3803;51.666;7.630;2024-02-21T03:51:58;12.80;;;6.10;;
7523;SDS011;3803;51.666;7.630;2024-02-21T03:52:39;12.15;;;6.35;;
7523;SDS011;3803;51.666;7.630;2024-02-21T03:53:16;20.27;;;6.05;;
7523;SDS011;3803;51.666;7.630;2024-02-21T03:53:37;10.60;;;6.10;;
7523;SDS011;3803;51.666;7.630;2024-02-21T03:54:20;10.02;;;5.93;;
7523;SDS011;3803;51.666;7.630;2024-02-21T03:54:43;10.88;;;5.97;;
7523;SDS011;3803;51.666;7.630;2024-02-21T03:55:13;12.57;;;6.10;;
7523;SDS011;3803;51.666;7.630;2024-02-21T03:56:20;11.65;;;6.05;;
7523;SDS011;3803;51.666;7.630;2024-02-21T03:57:02;10.90;;;5.93;;
7523;SDS011;3803;51.666;7.630;2024-02-21T03:57:29;15.25;;;6.40;;
7523;SDS011;3803;51.666;7.630;2024-02-21T03:58:13;11.85;;;5.65;;
7523;SDS011;3803;51.666;7.630;2024-02-21T03:58:53;12.77;;;5.88;;
7523;SDS011;3803;51.666;7.630;2024-02-21T03:59:28;17.25;;;6.28;;
7523;SDS011;3803;51.666;7.630;2024-02-21T03:59:51;18.30;;;6.30;;
7523;SDS011;3803;51.666;7.630;2024-02-21T04:00:33;14.23;;;6.35;;
7523;SDS011;3803;51.666;7.630;2024-02-21T04:01:03;12.00;;;6.45;;
7523;SDS011;3803;51.666;7.630;2024-02-21T04:01:26;13.05;;;6.80;;
7523;SDS011;3803;51.666;7.630;2024-02-21T04:10:01;11.52;;;6.03;;
7523;SDS011;3803;51.666;7.630;2024-02-21T04:10:22;14.70;;;7.13;;
7523;SDS011;3803;51.666;7.630;2024-02-21T04:10:42;12.65;;;6.95;;
7523;SDS011;3803;51.666;7.630;2024-02-21T04:11:06;15.60;;;7.15;;
7523;SDS011;3803;51.666;7.630;2024-02-21T04:11:26;15.32;;;6.35;;
7523;SDS011;3803;51.666;7.630;2024-02-21T04:11:47;16.00;;;6.30;;
7523;SDS011;3803;51.666;7.630;2024-02-21T04:12:17;10.88;;;5.93;;
7523;SDS011;3803;51.666;7.630;2024-02-21T04:12:43;13.20;;;6.10;;
7523;SDS011;3803;51.666;7.630;2024-02-21T04:13:16;17.48;;;5.88;;
7523;SDS011;3803;51.666;7.630;2024-02-21T04:13:41;20.60;;;6.28;;
7523;SDS011;3803;51.666;7.630;2024-02-21T04:14:17;17.65;;;6.10;;
7523;SDS011;3803;51.666;7.630;2024-02-21T04:14:43;12.52;;;5.68;;
7523;SDS011;3803;51.666;7.630;2024-02-21T04:15:21;12.48;;;6.15;;
7523;SDS011;3803;51.666;7.630;2024-02-21T04:16:15;9.23;;;5.80;;
7523;SDS011;3803;51.666;7.630;2024-02-21T04:21:03;13.68;;;6.32;;
7523;SDS011;3803;51.666;7.630;2024-02-21T04:21:26;14.13;;;6.80;;
7523;SDS011;3803;51.666;7.630;2024-02-21T04:21:47;14.70;;;6.97;;
7523;SDS011;3803;51.666;7.630;2024-02-21T04:22:08;14.47;;;6.70;;
7523;SDS011;3803;51.666;7.630;2024-02-21T04:22:52;13.85;;;5.90;;
7523;SDS011;3803;51.666;7.630;2024-02-21T04:23:12;13.02;;;5.82;;
7523;SDS011;3803;51.666;7.630;2024-02-21T04:23:33;15.85;;;5.93;;
7523;SDS011;3803;51.666;7.630;2024-02-21T04:23:59;15.35;;;5.70;;
7523;SDS011;3803;51.666;7.630;2024-02-21T04:24:22;15.20;;;5.70;;
7523;SDS011;3803;51.666;7.630;2024-02-21T04:24:42;11.70;;;5.50;;
7523;SDS011;3803;51.666;7.630;2024-02-21T04:25:06;12.70;;;5.70;;
7523;SDS011;3803;51.666;7.630;2024-02-21T04:25:35;11.82;;;5.63;;
7523;SDS011;3803;51.666;7.630;2024-02-21T04:25:58;11.05;;;5.65;;
7523;SDS011;3803;51.666;7.630;2024-02-21T04:26:20;9.55;;;5.35;;
7523;SDS011;3803;51.666;7.630;2024-02-21T04:26:46;10.30;;;5.30;;
7523;SDS011;3803;51.666;7.630;2024-02-21T04:27:10;9.20;;;5.40;;
7523;SDS011;3803;51.666;7.630;2024-02-21T04:27:31;11.35;;;5.80;;
7523;SDS011;3803;51.666;7.630;2024-02-21T04:27:53;14.60;;;6.30;;
7523;SDS011;3803;51.666;7.630;2024-02-21T04:34:32;10.63;;;5.45;;
7523;SDS011;3803;51.666;7.630;2024-02-21T04:35:21;13.80;;;5.68;;
7523;SDS011;3803;51.666;7.630;2024-02-21T04:37:06;11.05;;;5.40;;
7523;SDS011;3803;51.666;7.630;2024-02-21T04:38:02;15.13;;;6.35;;
7523;SDS011;3803;51.666;7.630;2024-02-21T04:38:46;14.48;;;6.68;;
7523;SDS011;3803;51.666;7.630;2024-02-21T04:41:10;13.15;;;5.90;;
7523;SDS011;3803;51.666;7.630;2024-02-21T04:41:52;13.07;;;5.75;;
7523;SDS011;3803;51.666;7.630;2024-02-21T04:42:40;8.85;;;5.70;;
7523;SDS011;3803;51.666;7.630;2024-02-21T04:44:00;11.32;;;5.80;;
7523;SDS011;3803;51.666;7.630;2024-02-21T04:44:58;9.23;;;5.60;;
7523;SDS011;3803;51.666;7.630;2024-02-21T04:45:22;16.67;;;5.45;;
7523;SDS011;3803;51.666;7.630;2024-02-21T04:45:52;17.27;;;5.90;;
7523;SDS011;3803;51.666;7.630;2024-02-21T04:46:46;9.90;;;5.80;;
7523;SDS011;3803;51.666;7.630;2024-02-21T04:47:54;13.27;;;6.13;;
7523;SDS011;3803;51.666;7.630;2024-02-21T04:48:36;11.75;;;6.20;;
7523;SDS011;3803;51.666;7.630;2024-02-21T04:49:27;10.30;;;5.80;;
7523;SDS011;3803;51.666;7.630;2024-02-21T04:50:28;12.00;;;5.70;;
7523;SDS011;3803;51.666;7.630;2024-02-21T04:53:11;11.73;;;5.00;;
7523;SDS011;3803;51.666;7.630;2024-02-21T04:54:17;12.70;;;5.68;;
7523;SDS011;3803;51.666;7.630;2024-02-21T05:00:05;9.65;;;5.00;;
7523;SDS011;3803;51.666;7.630;2024-02-21T05:00:26;9.88;;;4.97;;
7523;SDS011;3803;51.666;7.630;2024-02-21T05:00:59;11.60;;;5.30;;
7523;SDS011;3803;51.666;7.630;2024-02-21T05:01:28;12.57;;;6.07;;
7523;SDS011;3803;51.666;7.630;2024-02-21T05:03:27;11.30;;;5.18;;
7523;SDS011;3803;51.666;7.630;2024-02-21T05:03:48;12.05;;;5.20;;
7523;SDS011;3803;51.666;7.630;2024-02-21T05:04:17;11.60;;;5.32;;
7523;SDS011;3803;51.666;7.630;2024-02-21T05:04:38;9.90;;;5.28;;
7523;SDS011;3803;51.666;7.630;2024-02-21T05:05:15;9.05;;;5.45;;
7523;SDS011;3803;51.666;7.630;2024-02-21T05:05:43;12.10;;;5.65;;
7523;SDS011;3803;51.666;7.630;2024-02-21T05:06:06;12.48;;;6.00;;
7523;SDS011;3803;51.666;7.630;2024-02-21T05:11:09;11.25;;;5.07;;
7523;SDS011;3803;51.666;7.630;2024-02-21T05:11:57;12.13;;;4.70;;
7523;SDS011;3803;51.666;7.630;2024-02-21T05:12:46;10.70;;;4.95;;
7523;SDS011;3803;51.666;7.630;2024-02-21T05:13:06;11.10;;;5.40;;
7523;SDS011;3803;51.666;7.630;2024-02-21T05:15:14;9.05;;;5.15;;
7523;SDS011;3803;51.666;7.630;2024-02-21T05:15:37;10.35;;;4.80;;
7523;SDS011;3803;51.666;7.630;2024-02-21T05:16:14;11.52;;;4.85;;
7523;SDS011;3803;51.666;7.630;2024-02-21T05:17:08;9.32;;;5.10;;
7523;SDS011;3803;51.666;7.630;2024-02-21T05:17:29;7.70;;;4.93;;
7523;SDS011;3803;51.666;7.630;2024-02-21T05:17:53;8.65;;;5.60;;
7523;SDS011;3803;51.666;7.630;2024-02-21T05:18:17;11.75;;;6.10;;
7523;SDS011;3803;51.666;7.630;2024-02-21T05:18:40;11.95;;;6.00;;
7523;SDS011;3803;51.666;7.630;2024-02-21T05:19:56;11.18;;;5.50;;
7523;SDS011;3803;51.666;7.630;2024-02-21T05:20:50;10.60;;;4.90;;
7523;SDS011;3803;51.666;7.630;2024-02-21T05:31:06;9.90;;;5.38;;
7523;SDS011;3803;51.666;7.630;2024-02-21T05:31:43;10.75;;;6.10;;
7523;SDS011;3803;51.666;7.630;2024-02-21T05:32:14;10.60;;;5.63;;
7523;SDS011;3803;51.666;7.630;2024-02-21T05:43:49;11.25;;;4.50;;
7523;SDS011;3803;51.666;7.630;2024-02-21T05:44:57;10.45;;;4.70;;
7523;SDS011;3803;51.666;7.630;2024-02-21T05:45:18;12.50;;;4.40;;
7523;SDS011;3803;51.666;7.630;2024-02-21T05:45:57;14.82;;;4.50;;
7523;SDS011;3803;51.666;7.630;2024-02-21T05:46:34;9.23;;;4.30;;
7523;SDS011;3803;51.666;7.630;2024-02-21T05:51:57;12.02;;;4.55;;
7523;SDS011;3803;51.666;7.630;2024-02-21T05:52:57;8.32;;;4.78;;
7523;SDS011;3803;51.666;7.630;2024-02-21T05:53:21;7.00;;;4.43;;
7523;SDS011;3803;51.666;7.630;2024-02-21T05:53:42;6.88;;;4.10;;
7523;SDS011;3803;51.666;7.630;2024-02-21T05:54:03;12.00;;;4.60;;
7523;SDS011;3803;51.666;7.630;2024-02-21T05:54:24;16.10;;;4.80;;
7523;SDS011;3803;51.666;7.630;2024-02-21T05:55:22;6.03;;;4.20;;
7523;SDS011;3803;51.666;7.630;2024-02-21T05:55:49;10.48;;;4.93;;
7523;SDS011;3803;51.666;7.630;2024-02-21T05:56:27;10.77;;;5.00;;
7523;SDS011;3803;51.666;7.630;2024-02-21T05:57:05;9.05;;;4.30;;
7523;SDS011;3803;51.666;7.630;2024-02-21T05:58:11;9.38;;;4.32;;
7523;SDS011;3803;51.666;7.630;2024-02-21T05:58:47;10.88;;;5.15;;
7523;SDS011;3803;51.666;7.630;2024-02-21T05:59:08;10.07;;;4.82;;
7523;SDS011;3803;51.666;7.630;2024-02-21T05:59:44;11.98;;;4.50;;
7523;SDS011;3803;51.666;7.630;2024-02-21T06:00:05;11.63;;;4.70;;
7523;SDS011;3803;51.666;7.630;2024-02-21T06:00:43;8.68;;;4.60;;
7523;SDS011;3803;51.666;7.630;2024-02-21T06:01:10;7.07;;;4.43;;
7523;SDS011;3803;51.666;7.630;2024-02-21T06:02:08;8.63;;;4.43;;
7523;SDS011;3803;51.666;7.630;2024-02-21T06:02:31;7.00;;;4.10;;
7523;SDS011;3803;51.666;7.630;2024-02-21T06:02:52;6.10;;;3.83;;
7523;SDS011;3803;51.666;7.630;2024-02-21T06:03:53;8.70;;;4.10;;
7523;SDS011;3803;51.666;7.630;2024-02-21T06:13:18;11.95;;;4.20;;
7523;SDS011;3803;51.666;7.630;2024-02-21T06:13:46;10.77;;;4.32;;
7523;SDS011;3803;51.666;7.630;2024-02-21T06:14:12;11.00;;;4.57;;
7523;SDS011;3803;51.666;7.630;2024-02-21T06:14:41;8.95;;;4.60;;
7523;SDS011;3803;51.666;7.630;2024-02-21T06:15:02;9.48;;;4.50;;
7523;SDS011;3803;51.666;7.630;2024-02-21T06:15:26;6.55;;;3.80;;
7523;SDS011;3803;51.666;7.630;2024-02-21T06:16:14;7.55;;;3.95;;
7523;SDS011;3803;51.666;7.630;2024-02-21T06:16:37;17.35;;;4.07;;
7523;SDS011;3803;51.666;7.630;2024-02-21T06:22:26;6.45;;;4.00;;
7523;SDS011;3803;51.666;7.630;2024-02-21T06:23:26;7.55;;;4.13;;
7523;SDS011;3803;51.666;7.630;2024-02-21T06:23:47;10.50;;;4.68;;
7523;SDS011;3803;51.666;7.630;2024-02-21T06:24:17;10.48;;;4.35;;
7523;SDS011;3803;51.666;7.630;2024-02-21T06:24:52;13.13;;;4.63;;
7523;SDS011;3803;51.666;7.630;2024-02-21T06:25:28;17.70;;;5.10;;
7523;SDS011;3803;51.666;7.630;2024-02-21T06:26:04;14.68;;;4.88;;
7523;SDS011;3803;51.666;7.630;2024-02-21T06:26:53;9.18;;;4.45;;
7523;SDS011;3803;51.666;7.630;2024-02-21T06:27:23;10.32;;;4.30;;
7523;SDS011;3803;51.666;7.630;2024-02-21T06:29:10;7.32;;;3.72;;
7523;SDS011;3803;51.666;7.630;2024-02-21T06:30:24;6.65;;;3.50;;
7523;SDS011;3803;51.666;7.630;2024-02-21T06:31:08;7.03;;;3.80;;
7523;SDS011;3803;51.666;7.630;2024-02-21T06:32:19;6.25;;;4.15;;
7523;SDS011;3803;51.666;7.630;2024-02-21T06:33:00;8.23;;;4.25;;
7523;SDS011;3803;51.666;7.630;2024-02-21T06:33:54;10.00;;;4.18;;
7523;SDS011;3803;51.666;7.630;2024-02-21T06:39:41;8.10;;;4.05;;
7523;SDS011;3803;51.666;7.630;2024-02-21T06:41:26;10.25;;;4.30;;
7523;SDS011;3803;51.666;7.630;2024-02-21T06:42:25;10.80;;;4.20;;
7523;SDS011;3803;51.666;7.630;2024-02-21T06:42:58;9.85;;;4.10;;
7523;SDS011;3803;51.666;7.630;2024-02-21T06:43:33;7.07;;;3.95;;
7523;SDS011;3803;51.666;7.630;2024-02-21T06:44:46;8.68;;;3.63;;
7523;SDS011;3803;51.666;7.630;2024-02-21T06:45:15;9.95;;;4.07;;
7523;SDS011;3803;51.666;7.630;2024-02-21T06:46:04;7.97;;;3.95;;
7523;SDS011;3803;51.666;7.630;2024-02-21T06:47:20;9.07;;;3.13;;
7523;SDS011;3803;51.666;7.630;2024-02-21T06:47:53;6.47;;;3.30;;
7523;SDS011;3803;51.666;7.630;2024-02-21T06:52:30;10.35;;;3.50;;
7523;SDS011;3803;51.666;7.630;2024-02-21T06:53:01;6.97;;;3.35;;
7523;SDS011;3803;51.666;7.630;2024-02-21T06:53:30;7.78;;;3.90;;
7523;SDS011;3803;51.666;7.630;2024-02-21T06:54:12;7.82;;;3.85;;
7523;SDS011;3803;51.666;7.630;2024-02-21T06:54:44;7.70;;;3.88;;
7523;SDS011;3803;51.666;7.630;2024-02-21T06:55:08;6.30;;;3.50;;
7523;SDS011;3803;51.666;7.630;2024-02-21T07:05:08;9.27;;;3.70;;
7523;SDS011;3803;51.666;7.630;2024-02-21T07:05:32;8.30;;;3.70;;
7523;SDS011;3803;51.666;7.630;2024-02-21T07:05:52;8.55;;;4.15;;
7523;SDS011;3803;51.666;7.630;2024-02-21T07:06:16;6.60;;;3.90;;
7523;SDS011;3803;51.666;7.630;2024-02-21T07:06:40;7.90;;;4.20;;
7523;SDS011;3803;51.666;7.630;2024-02-21T07:11:30;13.00;;;3.80;;
7523;SDS011;3803;51.666;7.630;2024-02-21T07:12:09;11.48;;;3.60;;
7523;SDS011;3803;51.666;7.630;2024-02-21T07:12:48;12.77;;;3.70;;
7523;SDS011;3803;51.666;7.630;2024-02-21T07:13:15;9.68;;;3.50;;
7523;SDS011;3803;51.666;7.630;2024-02-21T07:13:38;10.38;;;3.70;;
7523;SDS011;3803;51.666;7.630;2024-02-21T07:14:03;9.52;;;3.10;;
7523;SDS011;3803;51.666;7.630;2024-02-21T07:14:35;6.88;;;3.05;;
7523;SDS011;3803;51.666;7.630;2024-02-21T07:14:59;4.70;;;3.00;;
7523;SDS011;3803;51.666;7.630;2024-02-21T07:15:22;4.20;;;2.75;;
7523;SDS011;3803;51.666;7.630;2024-02-21T07:15:53;4.50;;;3.00;;
7523;SDS011;3803;51.666;7.630;2024-02-21T07:16:16;5.60;;;3.15;;
7523;SDS011;3803;51.666;7.630;2024-02-21T07:16:40;9.25;;;3.42;;
7523;SDS011;3803;51.666;7.630;2024-02-21T07:17:01;8.57;;;3.20;;
7523;SDS011;3803;51.666;7.630;2024-02-21T07:17:22;8.52;;;3.28;;
7523;SDS011;3803;51.666;7.630;2024-02-21T07:17:43;5.53;;;3.30;;
7523;SDS011;3803;51.666;7.630;2024-02-21T07:18:04;5.53;;;3.40;;
7523;SDS011;3803;51.666;7.630;2024-02-21T07:19:02;5.50;;;3.50;;
7523;SDS011;3803;51.666;7.630;2024-02-21T07:24:06;6.28;;;3.20;;
7523;SDS011;3803;51.666;7.630;2024-02-21T07:24:38;7.75;;;3.25;;
7523;SDS011;3803;51.666;7.630;2024-02-21T07:25:04;4.88;;;3.00;;
7523;SDS011;3803;51.666;7.630;2024-02-21T07:25:35;5.30;;;2.95;;
7523;SDS011;3803;51.666;7.630;2024-02-21T07:26:02;6.30;;;3.00;;
7523;SDS011;3803;51.666;7.630;2024-02-21T07:27:18;9.15;;;3.17;;
7523;SDS011;3803;51.666;7.630;2024-02-21T07:27:44;7.60;;;3.22;;
7523;SDS011;3803;51.666;7.630;2024-02-21T07:32:57;8.07;;;3.85;;
7523;SDS011;3803;51.666;7.630;2024-02-21T07:33:23;9.70;;;3.70;;
7523;SDS011;3803;51.666;7.630;2024-02-21T07:33:53;7.35;;;3.17;;
7523;SDS011;3803;51.666;7.630;2024-02-21T07:34:14;5.70;;;3.00;;
7523;SDS011;3803;51.666;7.630;2024-02-21T07:34:35;4.38;;;2.63;;
7523;SDS011;3803;51.666;7.630;2024-02-21T07:34:59;5.38;;;2.58;;
7523;SDS011;3803;51.666;7.630;2024-02-21T07:35:23;7.78;;;2.60;;
7523;SDS011;3803;51.666;7.630;2024-02-21T07:35:56;8.00;;;2.90;;
7523;SDS011;3803;51.666;7.630;2024-02-21T07:36:28;4.32;;;2.80;;
7523;SDS011;3803;51.666;7.630;2024-02-21T07:37:08;5.75;;;2.83;;
7523;SDS011;3803;51.666;7.630;2024-02-21T07:37:29;7.97;;;3.17;;
7523;SDS011;3803;51.666;7.630;2024-02-21T07:38:00;14.02;;;3.88;;
7523;SDS011;3803;51.666;7.630;2024-02-21T07:38:24;12.80;;;3.37;;
7523;SDS011;3803;51.666;7.630;2024-02-21T07:38:45;5.50;;;3.00;;
7523;SDS011;3803;51.666;7.630;2024-02-21T07:39:07;3.90;;;2.60;;
7523;SDS011;3803;51.666;7.630;2024-02-21T07:39:36;4.63;;;2.83;;
7523;SDS011;3803;51.666;7.630;2024-02-21T07:40:12;5.43;;;2.92;;
7523;SDS011;3803;51.666;7.630;2024-02-21T07:40:34;7.05;;;2.95;;
7523;SDS011;3803;51.666;7.630;2024-02-21T07:40:55;7.05;;;3.10;;
7523;SDS011;3803;51.666;7.630;2024-02-21T07:41:19;4.60;;;2.70;;
7523;SDS011;3803;51.666;7.630;2024-02-21T07:41:39;4.97;;;2.88;;
7523;SDS011;3803;51.666;7.630;2024-02-21T07:42:04;4.88;;;2.80;;
7523;SDS011;3803;51.666;7.630;2024-02-21T07:42:25;5.20;;;2.85;;
7523;SDS011;3803;51.666;7.630;2024-02-21T07:44:10;9.75;;;3.20;;
7523;SDS011;3803;51.666;7.630;2024-02-21T07:45:20;5.70;;;2.90;;
7523;SDS011;3803;51.666;7.630;2024-02-21T07:47:15;7.47;;;3.15;;
7523;SDS011;3803;51.666;7.630;2024-02-21T07:47:36;5.20;;;2.88;;
7523;SDS011;3803;51.666;7.630;2024-02-21T07:47:57;3.40;;;2.42;;
7523;SDS011;3803;51.666;7.630;2024-02-21T07:50:12;4.60;;;2.70;;
7523;SDS011;3803;51.666;7.630;2024-02-21T07:50:32;5.20;;;2.77;;
7523;SDS011;3803;51.666;7.630;2024-02-21T07:50:53;7.72;;;3.00;;
7523;SDS011;3803;51.666;7.630;2024-02-21T07:51:14;8.90;;;3.20;;
7523;SDS011;3803;51.666;7.630;2024-02-21T07:51:38;6.53;;;2.90;;
7523;SDS011;3803;51.666;7.630;2024-02-21T07:52:00;6.40;;;2.97;;
7523;SDS011;3803;51.666;7.630;2024-02-21T07:52:21;7.25;;;2.92;;
7523;SDS011;3803;51.666;7.630;2024-02-21T07:52:42;8.70;;;3.30;;
7523;SDS011;3803;51.666;7.630;2024-02-21T07:53:04;6.13;;;3.05;;
7523;SDS011;3803;51.666;7.630;2024-02-21T07:53:24;5.27;;;3.10;;